createdAt,value
2019-02-18T00:00:12.986Z,24.9
2019-02-18T00:01:02.736Z,24.9
2019-02-18T00:01:52.343Z,24.8
2019-02-18T00:02:42.603Z,24.8
2019-02-18T00:03:33.554Z,24.9
2019-02-18T00:04:22.469Z,25.1
2019-02-18T00:05:12.818Z,25.2
2019-02-18T00:06:03.438Z,25.3
2019-02-18T00:06:53.251Z,25.4
2019-02-18T00:07:43.245Z,25.4
2019-02-18T00:08:33.018Z,25.6
2019-02-18T00:09:23.075Z,25.6
2019-02-18T00:10:13.238Z,25.6
2019-02-18T00:11:03.268Z,25.8
2019-02-18T00:11:53.298Z,25.8
2019-02-18T00:12:43.635Z,25.9
2019-02-18T00:13:33.908Z,25.9
2019-02-18T00:14:23.379Z,25.9
2019-02-18T00:15:14.107Z,25.9
2019-02-18T00:16:03.281Z,25.8
2019-02-18T00:16:53.438Z,25.7
2019-02-18T00:17:43.914Z,25.6
2019-02-18T00:18:34.586Z,25.5
2019-02-18T00:19:24.047Z,25.4
2019-02-18T00:20:13.567Z,25.3
2019-02-18T00:21:04.770Z,25.3
2019-02-18T00:21:54.210Z,25.2
2019-02-18T00:22:44.805Z,25.1
2019-02-18T00:23:34.635Z,25.1
2019-02-18T00:24:24.717Z,25
2019-02-18T00:25:14.479Z,24.9
2019-02-18T00:26:03.786Z,24.8
2019-02-18T00:26:54.282Z,24.8
2019-02-18T00:27:44.957Z,24.8
2019-02-18T00:28:34.189Z,24.7
2019-02-18T00:29:23.720Z,24.8
2019-02-18T00:30:13.780Z,24.9
2019-02-18T00:31:03.812Z,25
2019-02-18T00:31:55.494Z,25.1
2019-02-18T00:32:45.536Z,25.2
2019-02-18T00:33:35.294Z,25.3
2019-02-18T00:34:25.617Z,25.3
2019-02-18T00:35:15.520Z,25.4
2019-02-18T00:36:06.099Z,25.4
2019-02-18T00:36:55.016Z,25.5
2019-02-18T00:37:45.059Z,25.6
2019-02-18T00:38:35.646Z,25.7
2019-02-18T00:39:25.199Z,25.8
2019-02-18T00:40:16.035Z,25.8
2019-02-18T00:41:05.297Z,25.7
2019-02-18T00:41:56.611Z,25.6
2019-02-18T00:42:45.663Z,25.5
2019-02-18T00:43:36.008Z,25.4
2019-02-18T00:44:25.903Z,25.3
2019-02-18T00:45:16.191Z,25.3
2019-02-18T00:46:05.385Z,25.1
2019-02-18T00:46:55.470Z,25.1
2019-02-18T00:47:48.014Z,25.1
2019-02-18T00:48:35.796Z,25
2019-02-18T00:49:25.593Z,24.9
2019-02-18T00:50:15.621Z,24.8
2019-02-18T00:51:05.651Z,24.8
2019-02-18T00:51:56.035Z,24.7
2019-02-18T00:52:46.128Z,24.6
2019-02-18T00:53:37.010Z,24.6
2019-02-18T00:54:27.018Z,24.6
2019-02-18T00:55:16.280Z,24.7
2019-02-18T00:56:05.805Z,24.8
2019-02-18T00:56:56.605Z,24.8
2019-02-18T00:57:46.500Z,24.9
2019-02-18T00:58:36.808Z,25
2019-02-18T00:59:26.895Z,25.1
2019-02-18T01:00:17.028Z,25.1
2019-02-18T01:01:06.659Z,25.2
2019-02-18T01:01:57.017Z,25.3
2019-02-18T01:02:46.765Z,25.3
2019-02-18T01:03:37.100Z,25.4
2019-02-18T01:04:27.752Z,25.5
2019-02-18T01:05:17.332Z,25.6
2019-02-18T01:06:06.754Z,25.6
2019-02-18T01:06:57.650Z,25.6
2019-02-18T01:07:47.420Z,25.5
2019-02-18T01:08:37.514Z,25.4
2019-02-18T01:09:28.109Z,25.3
2019-02-18T01:10:17.892Z,25.2
2019-02-18T01:11:07.162Z,25.1
2019-02-18T01:11:57.672Z,25
2019-02-18T01:12:47.460Z,24.9
2019-02-18T01:13:37.775Z,24.9
2019-02-18T01:14:28.395Z,24.8
2019-02-18T01:15:18.016Z,24.8
2019-02-18T01:16:08.314Z,24.7
2019-02-18T01:16:57.489Z,24.6
2019-02-18T01:17:48.099Z,24.6
2019-02-18T01:18:38.437Z,24.5
2019-02-18T01:19:28.489Z,24.5
2019-02-18T01:20:18.139Z,24.5
2019-02-18T01:21:08.319Z,24.6
2019-02-18T01:21:58.339Z,24.6
2019-02-18T01:22:49.432Z,24.7
2019-02-18T01:23:39.099Z,24.8
2019-02-18T01:24:27.766Z,24.8
2019-02-18T01:25:18.219Z,24.9
2019-02-18T01:26:08.971Z,24.9
2019-02-18T01:26:58.429Z,25
2019-02-18T01:27:48.871Z,25.1
2019-02-18T01:28:38.878Z,25.2
2019-02-18T01:29:28.608Z,25.3
2019-02-18T01:30:18.753Z,25.4
2019-02-18T01:31:08.561Z,25.5
2019-02-18T01:31:59.111Z,25.6
2019-02-18T01:32:49.700Z,25.6
2019-02-18T01:33:38.580Z,25.6
2019-02-18T01:34:29.813Z,25.6
2019-02-18T01:35:19.066Z,25.6
2019-02-18T01:36:09.155Z,25.6
2019-02-18T01:36:59.125Z,25.5
2019-02-18T01:37:53.280Z,25.5
2019-02-18T01:38:39.610Z,25.5
2019-02-18T01:39:29.847Z,25.4
2019-02-18T01:40:19.780Z,25.4
2019-02-18T01:41:10.295Z,25.4
2019-02-18T01:41:59.459Z,25.4
2019-02-18T01:42:50.369Z,25.5
2019-02-18T01:43:39.315Z,25.5
2019-02-18T01:44:30.262Z,25.6
2019-02-18T01:45:19.145Z,25.6
2019-02-18T01:46:10.345Z,25.5
2019-02-18T01:47:00.420Z,25.4
2019-02-18T01:47:50.154Z,25.3
2019-02-18T01:48:40.517Z,25.3
2019-02-18T01:49:29.471Z,25.1
2019-02-18T01:50:20.803Z,25.1
2019-02-18T01:51:10.661Z,25
2019-02-18T01:51:59.897Z,24.9
2019-02-18T01:52:50.281Z,24.9
2019-02-18T01:53:40.272Z,24.8
2019-02-18T01:54:29.507Z,24.7
2019-02-18T01:55:20.768Z,24.6
2019-02-18T01:56:11.280Z,24.6
2019-02-18T01:57:00.801Z,24.5
2019-02-18T01:57:51.383Z,24.4
2019-02-18T01:58:40.161Z,24.4
2019-02-18T01:59:30.654Z,24.4
2019-02-18T02:00:20.334Z,24.5
2019-02-18T02:01:10.884Z,24.6
2019-02-18T02:02:00.362Z,24.6
2019-02-18T02:02:51.109Z,24.7
2019-02-18T02:03:41.906Z,24.8
2019-02-18T02:04:30.578Z,24.8
2019-02-18T02:05:21.581Z,24.9
2019-02-18T02:06:10.876Z,24.9
2019-02-18T02:07:01.832Z,25
2019-02-18T02:08:02.605Z,25.1
2019-02-18T02:08:41.138Z,25.2
2019-02-18T02:09:30.878Z,25.3
2019-02-18T02:10:21.279Z,25.4
2019-02-18T02:11:11.012Z,25.4
2019-02-18T02:12:01.405Z,25.4
2019-02-18T02:12:52.455Z,25.3
2019-02-18T02:13:42.513Z,25.2
2019-02-18T02:14:31.302Z,25.1
2019-02-18T02:15:22.400Z,25
2019-02-18T02:16:12.372Z,24.9
2019-02-18T02:17:01.675Z,24.9
2019-02-18T02:17:51.955Z,24.8
2019-02-18T02:18:42.619Z,24.8
2019-02-18T02:19:32.355Z,24.7
2019-02-18T02:20:22.177Z,24.6
2019-02-18T02:21:11.755Z,24.6
2019-02-18T02:22:02.518Z,24.4
2019-02-18T02:22:52.580Z,24.4
2019-02-18T02:23:42.901Z,24.4
2019-02-18T02:24:32.438Z,24.3
2019-02-18T02:25:22.802Z,24.4
2019-02-18T02:26:13.385Z,24.4
2019-02-18T02:27:02.599Z,24.4
2019-02-18T02:27:53.211Z,24.5
2019-02-18T02:28:43.039Z,24.6
2019-02-18T02:29:32.829Z,24.6
2019-02-18T02:30:23.591Z,24.7
2019-02-18T02:31:13.614Z,24.8
2019-02-18T02:32:03.706Z,24.8
2019-02-18T02:32:53.334Z,24.9
2019-02-18T02:33:43.378Z,25
2019-02-18T02:34:33.497Z,25.1
2019-02-18T02:35:23.626Z,25.2
2019-02-18T02:36:13.839Z,25.3
2019-02-18T02:37:03.796Z,25.3
2019-02-18T02:37:53.467Z,25.3
2019-02-18T02:38:42.963Z,25.3
2019-02-18T02:39:34.439Z,25.2
2019-02-18T02:40:23.304Z,25.1
2019-02-18T02:41:13.919Z,24.9
2019-02-18T02:42:03.437Z,24.9
2019-02-18T02:42:54.383Z,24.8
2019-02-18T02:43:44.306Z,24.8
2019-02-18T02:44:34.747Z,24.7
2019-02-18T02:45:24.837Z,24.6
2019-02-18T02:46:14.881Z,24.6
2019-02-18T02:47:04.118Z,24.5
2019-02-18T02:47:54.317Z,24.4
2019-02-18T02:48:44.993Z,24.4
2019-02-18T02:49:34.913Z,24.3
2019-02-18T02:50:25.121Z,24.3
2019-02-18T02:51:15.547Z,24.2
2019-02-18T02:52:04.920Z,24.3
2019-02-18T02:52:54.276Z,24.3
2019-02-18T02:53:45.384Z,24.3
2019-02-18T02:54:34.412Z,24.4
2019-02-18T02:55:24.593Z,24.5
2019-02-18T02:56:15.038Z,24.5
2019-02-18T02:57:04.435Z,24.6
2019-02-18T02:57:54.542Z,24.6
2019-02-18T02:58:44.570Z,24.8
2019-02-18T02:59:34.415Z,24.8
2019-02-18T03:00:24.856Z,24.9
2019-02-18T03:01:16.167Z,25
2019-02-18T03:02:04.613Z,25.1
2019-02-18T03:02:55.217Z,25.2
2019-02-18T03:03:45.002Z,25.3
2019-02-18T03:04:34.549Z,25.3
2019-02-18T03:08:20.842Z,25
2019-02-18T03:08:57.113Z,24.8
2019-02-18T03:09:47.862Z,24.8
2019-02-18T03:10:37.391Z,24.7
2019-02-18T03:11:27.706Z,24.6
2019-02-18T03:12:17.522Z,24.6
2019-02-18T03:13:07.559Z,24.6
2019-02-18T03:13:57.857Z,24.4
2019-02-18T03:14:47.692Z,24.4
2019-02-18T03:15:38.062Z,24.3
2019-02-18T03:16:27.497Z,24.3
2019-02-18T03:17:17.704Z,24.2
2019-02-18T03:18:08.779Z,24.2
2019-02-18T03:18:58.255Z,24.3
2019-02-18T03:19:48.772Z,24.3
2019-02-18T03:20:38.603Z,24.3
2019-02-18T03:21:28.426Z,24.4
2019-02-18T03:22:18.084Z,24.4
2019-02-18T03:23:08.810Z,24.4
2019-02-18T03:23:59.212Z,24.5
2019-02-18T03:24:48.123Z,24.6
2019-02-18T03:25:39.152Z,24.6
2019-02-18T03:26:28.971Z,24.8
2019-02-18T03:27:18.843Z,24.9
2019-02-18T03:28:08.523Z,24.9
2019-02-18T03:28:59.648Z,25
2019-02-18T03:29:50.061Z,25.1
2019-02-18T03:30:39.499Z,25.2
2019-02-18T03:31:29.834Z,25.3
2019-02-18T03:32:19.316Z,25.2
2019-02-18T03:33:10.491Z,25.2
2019-02-18T03:34:00.180Z,25.1
2019-02-18T03:34:49.067Z,24.9
2019-02-18T03:35:40.452Z,24.9
2019-02-18T03:36:29.931Z,24.8
2019-02-18T03:37:19.767Z,24.7
2019-02-18T03:38:10.432Z,24.6
2019-02-18T03:39:00.415Z,24.6
2019-02-18T03:39:50.498Z,24.5
2019-02-18T03:40:40.502Z,24.4
2019-02-18T03:41:30.795Z,24.4
2019-02-18T03:42:20.350Z,24.3
2019-02-18T03:43:10.341Z,24.3
2019-02-18T03:44:00.462Z,24.2
2019-02-18T03:44:50.503Z,24.1
2019-02-18T03:45:40.045Z,24.2
2019-02-18T03:46:31.000Z,24.2
2019-02-18T03:47:19.373Z,24.3
2019-02-18T03:48:10.826Z,24.3
2019-02-18T03:49:00.523Z,24.3
2019-02-18T03:49:50.953Z,24.4
2019-02-18T03:50:40.850Z,24.4
2019-02-18T03:51:30.992Z,24.5
2019-02-18T03:52:21.301Z,24.6
2019-02-18T03:53:11.129Z,24.6
2019-02-18T03:54:01.117Z,24.8
2019-02-18T03:54:51.219Z,24.8
2019-02-18T03:55:41.052Z,24.9
2019-02-18T03:56:31.069Z,25
2019-02-18T03:57:21.121Z,25.1
2019-02-18T03:58:11.439Z,25.2
2019-02-18T03:59:01.015Z,25.3
2019-02-18T03:59:51.329Z,25.3
2019-02-18T04:00:41.334Z,25.1
2019-02-18T04:01:31.970Z,25.1
2019-02-18T04:02:21.180Z,24.9
2019-02-18T04:03:11.511Z,24.9
2019-02-18T04:04:01.618Z,24.8
2019-02-18T04:04:52.176Z,24.7
2019-02-18T04:05:41.701Z,24.6
2019-02-18T04:06:31.041Z,24.6
2019-02-18T04:07:22.351Z,24.5
2019-02-18T04:08:12.367Z,24.4
2019-02-18T04:09:02.488Z,24.3
2019-02-18T04:09:51.953Z,24.3
2019-02-18T04:10:42.081Z,24.2
2019-02-18T04:11:32.493Z,24.1
2019-02-18T04:12:21.865Z,24.1
2019-02-18T04:13:13.366Z,24.1
2019-02-18T04:14:02.905Z,24.2
2019-02-18T04:14:53.200Z,24.2
2019-02-18T04:15:42.615Z,24.2
2019-02-18T04:16:32.939Z,24.3
2019-02-18T04:17:22.203Z,24.3
2019-02-18T04:18:12.862Z,24.4
2019-02-18T04:19:03.180Z,24.4
2019-02-18T04:19:54.510Z,24.5
2019-02-18T04:20:43.087Z,24.6
2019-02-18T04:21:32.620Z,24.8
2019-02-18T04:22:22.800Z,24.8
2019-02-18T04:23:12.862Z,24.9
2019-02-18T04:24:02.915Z,24.8
2019-02-18T04:24:53.292Z,24.9
2019-02-18T04:25:43.523Z,24.9
2019-02-18T04:26:33.779Z,24.9
2019-02-18T04:27:23.433Z,24.9
2019-02-18T04:28:13.189Z,24.8
2019-02-18T04:29:03.277Z,24.8
2019-02-18T04:29:53.577Z,24.8
2019-02-18T04:30:43.713Z,24.8
2019-02-18T04:31:34.154Z,24.7
2019-02-18T04:32:24.043Z,24.7
2019-02-18T04:33:14.190Z,24.6
2019-02-18T04:34:04.180Z,24.6
2019-02-18T04:34:53.942Z,24.6
2019-02-18T04:35:44.311Z,24.7
2019-02-18T04:36:34.611Z,24.8
2019-02-18T04:37:24.426Z,24.8
2019-02-18T04:38:13.919Z,24.9
2019-02-18T04:39:04.217Z,25
2019-02-18T04:39:54.327Z,25
2019-02-18T04:40:44.119Z,25.1
2019-02-18T04:41:34.729Z,25.1
2019-02-18T04:42:25.019Z,25
2019-02-18T04:43:15.312Z,24.9
2019-02-18T04:44:04.946Z,24.8
2019-02-18T04:44:54.118Z,24.7
2019-02-18T04:45:44.524Z,24.6
2019-02-18T04:46:35.656Z,24.6
2019-02-18T04:47:25.457Z,24.5
2019-02-18T04:48:15.479Z,24.4
2019-02-18T04:49:05.593Z,24.4
2019-02-18T04:49:55.781Z,24.3
2019-02-18T04:50:45.638Z,24.3
2019-02-18T04:51:35.137Z,24.2
2019-02-18T04:52:25.198Z,24.1
2019-02-18T04:53:15.215Z,24.1
2019-02-18T04:54:05.302Z,24.1
2019-02-18T04:54:55.351Z,24.1
2019-02-18T04:55:45.089Z,24.1
2019-02-18T04:56:35.750Z,24.1
2019-02-18T04:57:26.162Z,24.2
2019-02-18T04:58:15.895Z,24.3
2019-02-18T04:59:05.669Z,24.3
2019-02-18T04:59:56.268Z,24.4
2019-02-18T05:00:45.246Z,24.4
2019-02-18T05:01:36.670Z,24.5
2019-02-18T05:02:26.167Z,24.6
2019-02-18T05:03:16.208Z,24.7
2019-02-18T05:04:05.887Z,24.8
2019-02-18T05:04:56.381Z,24.9
2019-02-18T05:05:46.389Z,25
2019-02-18T05:06:36.234Z,25
2019-02-18T05:07:26.784Z,25.1
2019-02-18T05:08:17.095Z,25.1
2019-02-18T05:09:12.640Z,24.9
2019-02-18T05:09:56.682Z,24.9
2019-02-18T05:10:47.294Z,24.8
2019-02-18T05:11:36.794Z,24.6
2019-02-18T05:12:26.837Z,24.6
2019-02-18T05:13:16.627Z,24.4
2019-02-18T05:14:06.509Z,24.4
2019-02-18T05:14:57.002Z,24.3
2019-02-18T05:15:47.733Z,24.3
2019-02-18T05:16:36.910Z,24.1
2019-02-18T05:17:26.625Z,24.1
2019-02-18T05:18:16.642Z,24
2019-02-18T05:19:07.045Z,23.9
2019-02-18T05:19:57.117Z,23.9
2019-02-18T05:20:47.193Z,23.8
2019-02-18T05:21:37.226Z,23.9
2019-02-18T05:22:27.269Z,23.9
2019-02-18T05:23:17.925Z,24
2019-02-18T05:24:07.191Z,24.1
2019-02-18T05:24:57.431Z,24.1
2019-02-18T05:25:47.277Z,24.2
2019-02-18T05:26:37.307Z,24.3
2019-02-18T05:27:39.689Z,24.3
2019-02-18T05:28:18.274Z,24.4
2019-02-18T05:29:07.786Z,24.4
2019-02-18T05:29:58.033Z,24.6
2019-02-18T05:30:47.637Z,24.6
2019-02-18T05:31:38.537Z,24.8
2019-02-18T05:32:28.052Z,24.9
2019-02-18T05:33:18.591Z,24.9
2019-02-18T05:34:08.187Z,24.9
2019-02-18T05:34:57.819Z,25
2019-02-18T05:35:47.877Z,24.9
2019-02-18T05:36:38.799Z,24.8
2019-02-18T05:37:27.630Z,24.7
2019-02-18T05:38:18.031Z,24.6
2019-02-18T05:39:20.330Z,24.4
2019-02-18T05:40:00.548Z,24.4
2019-02-18T05:40:48.641Z,24.3
2019-02-18T05:41:38.197Z,24.3
2019-02-18T05:42:28.581Z,24.2
2019-02-18T05:43:18.760Z,24.1
2019-02-18T05:44:08.316Z,24.1
2019-02-18T05:44:59.149Z,24
2019-02-18T05:45:48.949Z,23.9
2019-02-18T05:46:38.414Z,23.9
2019-02-18T05:47:28.524Z,23.8
2019-02-18T05:48:19.156Z,23.9
2019-02-18T05:49:08.346Z,23.9
2019-02-18T05:49:59.809Z,23.9
2019-02-18T05:50:49.179Z,24
2019-02-18T05:51:39.836Z,24.1
2019-02-18T05:52:29.141Z,24.1
2019-02-18T05:53:18.718Z,24.2
2019-02-18T05:54:09.463Z,24.3
2019-02-18T05:54:59.769Z,24.3
2019-02-18T05:55:49.334Z,24.4
2019-02-18T05:56:39.931Z,24.5
2019-02-18T05:57:30.540Z,24.6
2019-02-18T05:58:20.318Z,24.7
2019-02-18T05:59:09.852Z,24.8
2019-02-18T05:59:59.562Z,24.9
2019-02-18T06:00:49.785Z,24.9
2019-02-18T06:01:39.965Z,24.9
2019-02-18T06:02:30.483Z,24.9
2019-02-18T06:03:19.268Z,24.9
2019-02-18T06:06:07.700Z,24.6
2019-02-18T06:06:58.883Z,24.4
2019-02-18T06:07:48.770Z,24.4
2019-02-18T06:08:37.372Z,24.3
2019-02-18T06:09:37.099Z,24.2
2019-02-18T06:10:22.724Z,24.1
2019-02-18T06:11:07.715Z,24.1
2019-02-18T06:11:57.924Z,24
2019-02-18T06:12:47.806Z,23.9
2019-02-18T06:13:38.075Z,23.9
2019-02-18T06:14:28.627Z,23.8
2019-02-18T06:15:18.299Z,23.9
2019-02-18T06:16:08.714Z,23.9
2019-02-18T06:16:59.569Z,23.9
2019-02-18T06:17:49.640Z,24
2019-02-18T06:18:39.671Z,24.1
2019-02-18T06:19:28.974Z,24.1
2019-02-18T06:20:18.497Z,24.1
2019-02-18T06:21:08.759Z,24.3
2019-02-18T06:21:58.827Z,24.3
2019-02-18T06:22:49.729Z,24.4
2019-02-18T06:23:54.147Z,24.4
2019-02-18T06:24:29.161Z,24.6
2019-02-18T06:25:34.364Z,24.6
2019-02-18T06:26:10.170Z,24.8
2019-02-18T06:26:59.941Z,24.8
2019-02-18T06:27:52.029Z,24.9
2019-02-18T06:28:39.879Z,24.9
2019-02-18T06:29:30.214Z,24.9
2019-02-18T06:30:19.423Z,24.8
2019-02-18T06:31:10.349Z,24.8
2019-02-18T06:31:59.255Z,24.6
2019-02-18T06:32:50.261Z,24.6
2019-02-18T06:33:39.711Z,24.4
2019-02-18T06:34:30.583Z,24.4
2019-02-18T06:35:19.871Z,24.3
2019-02-18T06:36:10.091Z,24.2
2019-02-18T06:37:00.004Z,24.2
2019-02-18T06:37:50.108Z,24.1
2019-02-18T06:38:39.882Z,24.1
2019-02-18T06:39:43.015Z,24
2019-02-18T06:40:20.456Z,23.9
2019-02-18T06:41:09.786Z,23.9
2019-02-18T06:42:00.445Z,23.8
2019-02-18T06:42:50.016Z,23.8
2019-02-18T06:43:41.129Z,23.7
2019-02-18T06:44:29.829Z,23.7
2019-02-18T06:45:20.730Z,23.6
2019-02-18T06:46:10.466Z,23.6
2019-02-18T06:47:01.584Z,23.6
2019-02-18T06:47:50.595Z,23.5
2019-02-18T06:48:40.910Z,23.5
2019-02-18T06:49:31.037Z,23.5
2019-02-18T06:50:20.573Z,23.5
2019-02-18T06:51:11.275Z,23.4
2019-02-18T06:52:16.377Z,23.4
2019-02-18T06:52:50.892Z,23.4
2019-02-18T06:53:41.552Z,23.4
2019-02-18T06:54:46.549Z,23.4
2019-02-18T06:55:21.114Z,23.3
2019-02-18T06:56:10.904Z,23.3
2019-02-18T06:57:02.112Z,23.3
2019-02-18T06:57:51.839Z,23.3
2019-02-18T06:58:41.054Z,23.3
2019-02-18T06:59:31.656Z,23.2
2019-02-18T07:00:22.154Z,23.2
2019-02-18T07:01:11.804Z,23.2
2019-02-18T07:02:01.082Z,23.1
2019-02-18T07:02:52.887Z,23.1
2019-02-18T07:03:41.130Z,23.1
2019-02-18T07:06:07.671Z,23
2019-02-18T07:06:58.568Z,23
2019-02-18T07:07:47.291Z,23
2019-02-18T07:08:37.754Z,23
2019-02-18T07:09:27.663Z,22.9
2019-02-18T07:10:16.603Z,22.9
2019-02-18T07:11:08.926Z,22.9
2019-02-18T07:11:58.126Z,22.9
2019-02-18T07:12:48.711Z,22.9
2019-02-18T07:13:39.204Z,22.8
2019-02-18T07:14:28.314Z,22.8
2019-02-18T07:15:18.321Z,22.8
2019-02-18T07:16:08.980Z,22.8
2019-02-18T07:16:59.233Z,22.8
2019-02-18T07:17:48.758Z,22.7
2019-02-18T07:18:38.874Z,22.7
2019-02-18T07:20:00.533Z,22.6
2019-02-18T07:20:19.265Z,22.6
2019-02-18T07:21:07.608Z,22.6
2019-02-18T07:21:59.345Z,22.6
2019-02-18T07:22:49.925Z,22.6
2019-02-18T07:23:39.183Z,22.5
2019-02-18T07:24:29.338Z,22.5
2019-02-18T07:25:19.860Z,22.5
2019-02-18T07:26:09.343Z,22.4
2019-02-18T07:26:59.575Z,22.4
2019-02-18T07:27:49.722Z,22.4
2019-02-18T07:28:38.440Z,22.4
2019-02-18T07:29:29.307Z,22.4
2019-02-18T07:30:19.337Z,22.3
2019-02-18T07:31:10.000Z,22.3
2019-02-18T07:32:00.092Z,22.3
2019-02-18T07:32:49.740Z,22.3
2019-02-18T07:33:39.041Z,22.3
2019-02-18T07:34:30.393Z,22.3
2019-02-18T07:35:20.324Z,22.2
2019-02-18T07:36:10.410Z,22.2
2019-02-18T07:37:00.452Z,22.1
2019-02-18T07:38:04.287Z,22.1
2019-02-18T07:38:39.664Z,22.1
2019-02-18T07:39:29.212Z,22.1
2019-02-18T07:40:20.242Z,22.1
2019-02-18T07:41:10.632Z,22.1
2019-02-18T07:42:00.142Z,22
2019-02-18T07:42:50.811Z,22
2019-02-18T07:43:40.546Z,22
2019-02-18T07:44:30.627Z,22
2019-02-18T07:45:20.947Z,21.9
2019-02-18T07:46:10.674Z,21.9
2019-02-18T07:47:01.061Z,21.9
2019-02-18T07:47:50.554Z,21.9
2019-02-18T07:48:43.591Z,21.9
2019-02-18T07:49:30.714Z,21.8
2019-02-18T07:50:27.789Z,21.8
2019-02-18T07:51:14.536Z,21.8
2019-02-18T07:52:01.131Z,21.8
2019-02-18T07:52:50.360Z,21.8
2019-02-18T07:53:40.774Z,21.8
2019-02-18T07:54:31.605Z,21.8
2019-02-18T07:55:21.627Z,21.8
2019-02-18T07:56:11.506Z,21.7
2019-02-18T07:57:00.895Z,21.7
2019-02-18T07:57:51.555Z,21.7
2019-02-18T07:58:41.326Z,21.7
2019-02-18T07:59:30.598Z,21.6
2019-02-18T08:00:21.708Z,21.6
2019-02-18T08:01:11.848Z,21.6
2019-02-18T08:02:01.863Z,21.6
2019-02-18T08:02:51.939Z,21.6
2019-02-18T08:03:41.399Z,21.6
2019-02-18T08:04:31.700Z,21.5
2019-02-18T08:05:21.798Z,21.5
2019-02-18T08:06:11.280Z,21.6
2019-02-18T08:07:01.088Z,21.5
2019-02-18T08:07:52.497Z,21.5
2019-02-18T08:08:41.577Z,21.5
2019-02-18T08:09:31.519Z,21.5
2019-02-18T08:10:22.664Z,21.4
2019-02-18T08:11:11.194Z,21.4
2019-02-18T08:12:01.917Z,21.4
2019-02-18T08:12:51.164Z,21.4
2019-02-18T08:13:43.053Z,21.4
2019-02-18T08:14:32.454Z,21.4
2019-02-18T08:15:22.770Z,21.4
2019-02-18T08:16:11.144Z,21.3
2019-02-18T08:17:02.684Z,21.3
2019-02-18T08:17:52.427Z,21.3
2019-02-18T08:18:42.517Z,21.3
2019-02-18T08:19:33.322Z,21.3
2019-02-18T08:20:22.587Z,21.3
2019-02-18T08:21:12.089Z,21.3
2019-02-18T08:22:01.912Z,21.3
2019-02-18T08:22:53.069Z,21.2
2019-02-18T08:23:43.316Z,21.2
2019-02-18T08:24:32.655Z,21.2
2019-02-18T08:25:22.722Z,21.2
2019-02-18T08:31:13.279Z,21.1
2019-02-18T08:32:03.897Z,21.1
2019-02-18T08:32:53.660Z,21.1
2019-02-18T08:33:44.031Z,21.1
2019-02-18T08:34:34.053Z,21
2019-02-18T08:35:23.906Z,21
2019-02-18T08:36:13.635Z,21
2019-02-18T08:37:04.258Z,20.9
2019-02-18T08:37:54.736Z,20.9
2019-02-18T08:38:44.256Z,20.9
2019-02-18T08:39:34.750Z,20.9
2019-02-18T08:40:30.198Z,20.9
2019-02-18T08:41:13.511Z,20.9
2019-02-18T08:42:04.113Z,20.9
2019-02-18T08:42:54.191Z,20.9
2019-02-18T08:43:43.623Z,20.9
2019-02-18T08:44:34.749Z,20.9
2019-02-18T08:45:24.905Z,20.9
2019-02-18T08:46:14.610Z,20.9
2019-02-18T08:47:04.126Z,20.9
2019-02-18T08:47:54.178Z,20.9
2019-02-18T08:48:45.622Z,20.9
2019-02-18T08:49:35.194Z,20.8
2019-02-18T08:50:24.608Z,20.8
2019-02-18T08:51:15.027Z,20.8
2019-02-18T08:52:04.215Z,20.8
2019-02-18T08:52:54.232Z,20.8
2019-02-18T08:53:44.982Z,20.8
2019-02-18T08:54:34.220Z,20.8
2019-02-18T08:55:25.117Z,20.8
2019-02-18T08:56:16.110Z,20.8
2019-02-18T08:57:04.515Z,20.8
2019-02-18T08:57:55.657Z,20.8
2019-02-18T08:58:45.530Z,20.7
2019-02-18T08:59:35.784Z,20.8
2019-02-18T09:00:25.849Z,20.7
2019-02-18T09:01:15.918Z,20.7
2019-02-18T09:02:06.302Z,20.7
2019-02-18T09:02:56.609Z,20.7
2019-02-18T09:03:45.567Z,20.7
2019-02-18T09:04:36.441Z,20.7
2019-02-18T09:05:27.275Z,20.6
2019-02-18T09:06:15.671Z,20.6
2019-02-18T09:07:06.969Z,20.6
2019-02-18T09:07:55.617Z,20.6
2019-02-18T09:08:46.261Z,20.6
2019-02-18T09:09:36.466Z,20.6
2019-02-18T09:10:38.293Z,20.6
2019-02-18T09:11:17.211Z,20.6
2019-02-18T09:12:06.918Z,20.6
2019-02-18T09:12:56.483Z,20.6
2019-02-18T09:13:47.173Z,20.6
2019-02-18T09:14:36.281Z,20.5
2019-02-18T09:15:27.176Z,20.5
2019-02-18T09:16:17.220Z,20.5
2019-02-18T09:17:06.301Z,20.5
2019-02-18T09:17:57.196Z,20.5
2019-02-18T09:18:46.824Z,20.5
2019-02-18T09:19:36.993Z,20.5
2019-02-18T09:20:30.386Z,20.5
2019-02-18T09:21:16.511Z,20.4
2019-02-18T09:22:07.623Z,20.4
2019-02-18T09:22:56.943Z,20.4
2019-02-18T09:23:47.792Z,20.4
2019-02-18T09:24:37.497Z,20.4
2019-02-18T09:25:27.898Z,20.4
2019-02-18T09:26:16.941Z,20.4
2019-02-18T09:27:06.977Z,20.4
2019-02-18T09:27:57.583Z,20.4
2019-02-18T09:28:47.293Z,20.4
2019-02-18T09:29:37.332Z,20.4
2019-02-18T09:30:27.450Z,20.4
2019-02-18T09:31:17.523Z,20.4
2019-02-18T09:32:07.271Z,20.3
2019-02-18T09:32:57.105Z,20.4
2019-02-18T09:33:46.851Z,20.4
2019-02-18T09:34:37.512Z,20.4
2019-02-18T09:35:27.857Z,20.3
2019-02-18T09:36:17.619Z,20.4
2019-02-18T09:37:07.527Z,20.3
2019-02-18T09:37:57.580Z,20.3
2019-02-18T09:38:48.375Z,20.3
2019-02-18T09:39:38.289Z,20.3
2019-02-18T09:40:27.139Z,20.3
2019-02-18T09:41:17.661Z,20.3
2019-02-18T09:42:08.887Z,20.3
2019-02-18T09:42:57.589Z,20.3
2019-02-18T09:43:48.166Z,20.3
2019-02-18T09:44:37.587Z,20.3
2019-02-18T09:45:28.571Z,20.3
2019-02-18T09:46:18.814Z,20.3
2019-02-18T09:47:08.572Z,20.3
2019-02-18T09:48:00.336Z,20.3
2019-02-18T09:48:48.718Z,20.3
2019-02-18T09:49:39.355Z,20.3
2019-02-18T09:50:29.304Z,20.2
2019-02-18T09:51:19.487Z,20.2
2019-02-18T09:52:09.069Z,20.3
2019-02-18T09:52:58.753Z,20.2
2019-02-18T09:53:49.871Z,20.2
2019-02-18T09:54:38.846Z,20.2
2019-02-18T09:55:28.876Z,20.1
2019-02-18T09:56:19.275Z,20.2
2019-02-18T09:57:10.048Z,20.1
2019-02-18T09:57:59.337Z,20.2
2019-02-18T09:58:52.410Z,20.1
2019-02-18T09:59:40.498Z,20.1
2019-02-18T10:00:29.306Z,20.1
2019-02-18T10:01:19.848Z,20.1
2019-02-18T10:02:10.131Z,20.1
2019-02-18T10:02:59.884Z,20.1
2019-02-18T10:03:49.160Z,20.1
2019-02-18T10:04:40.644Z,20.1
2019-02-18T10:07:08.100Z,20.1
2019-02-18T10:07:57.330Z,20.1
2019-02-18T10:08:47.977Z,20.1
2019-02-18T10:09:36.883Z,20.1
2019-02-18T10:10:28.668Z,20.1
2019-02-18T10:11:17.813Z,20.1
2019-02-18T10:12:19.408Z,20.1
2019-02-18T10:13:01.215Z,20.1
2019-02-18T10:13:47.714Z,20.1
2019-02-18T10:14:38.359Z,20.1
2019-02-18T10:15:28.767Z,20.1
2019-02-18T10:16:18.502Z,20.1
2019-02-18T10:17:08.779Z,20
2019-02-18T10:17:58.582Z,20
2019-02-18T10:18:48.319Z,20
2019-02-18T10:19:37.898Z,20.1
2019-02-18T10:20:29.279Z,20
2019-02-18T10:21:18.866Z,20
2019-02-18T10:22:08.579Z,20
2019-02-18T10:22:58.669Z,20
2019-02-18T10:23:49.511Z,20
2019-02-18T10:24:51.205Z,20
2019-02-18T10:25:29.384Z,20
2019-02-18T10:26:18.884Z,20
2019-02-18T10:27:08.564Z,20
2019-02-18T10:27:59.479Z,19.9
2019-02-18T10:28:49.567Z,19.9
2019-02-18T10:29:39.599Z,19.9
2019-02-18T10:30:29.457Z,19.9
2019-02-18T10:31:19.211Z,19.9
2019-02-18T10:32:09.534Z,20
2019-02-18T10:32:59.041Z,19.9
2019-02-18T10:33:48.005Z,19.9
2019-02-18T10:34:38.369Z,19.9
2019-02-18T10:35:31.993Z,19.9
2019-02-18T10:36:19.519Z,19.9
2019-02-18T10:37:10.138Z,19.9
2019-02-18T10:38:02.838Z,19.9
2019-02-18T10:38:49.749Z,19.9
2019-02-18T10:39:39.823Z,19.9
2019-02-18T10:40:29.286Z,19.9
2019-02-18T10:41:22.383Z,19.9
2019-02-18T10:42:09.113Z,19.9
2019-02-18T10:43:00.373Z,19.9
2019-02-18T10:43:50.343Z,19.9
2019-02-18T10:44:40.216Z,19.9
2019-02-18T10:45:31.148Z,19.9
2019-02-18T10:46:20.578Z,19.9
2019-02-18T10:47:12.055Z,19.9
2019-02-18T10:48:01.289Z,19.9
2019-02-18T10:48:50.768Z,19.9
2019-02-18T10:49:40.521Z,19.9
2019-02-18T10:50:32.813Z,19.9
2019-02-18T10:51:20.778Z,19.9
2019-02-18T10:52:11.178Z,19.9
2019-02-18T10:53:01.340Z,19.8
2019-02-18T10:53:51.585Z,19.9
2019-02-18T10:54:41.315Z,19.9
2019-02-18T10:55:32.179Z,19.8
2019-02-18T10:56:23.644Z,19.9
2019-02-18T10:57:11.596Z,19.9
2019-02-18T10:58:01.114Z,19.9
2019-02-18T10:58:50.889Z,19.8
2019-02-18T10:59:41.800Z,19.8
2019-02-18T11:00:31.280Z,19.8
2019-02-18T11:01:21.068Z,19.9
2019-02-18T11:02:11.807Z,19.9
2019-02-18T11:03:01.155Z,19.8
2019-02-18T11:03:51.889Z,19.8
2019-02-18T11:04:41.307Z,19.8
2019-02-18T11:05:34.344Z,19.9
2019-02-18T11:06:22.015Z,19.8
2019-02-18T11:07:11.186Z,19.8
2019-02-18T11:08:01.602Z,19.8
2019-02-18T11:08:52.089Z,19.8
2019-02-18T11:09:42.131Z,19.8
2019-02-18T11:10:31.938Z,19.8
2019-02-18T11:11:24.509Z,19.8
2019-02-18T11:12:11.873Z,19.8
2019-02-18T11:13:04.739Z,19.8
2019-02-18T11:13:52.386Z,19.8
2019-02-18T11:14:41.746Z,19.8
2019-02-18T11:15:32.076Z,19.8
2019-02-18T11:16:23.334Z,19.8
2019-02-18T11:17:13.033Z,19.8
2019-02-18T11:18:03.328Z,19.8
2019-02-18T11:18:52.066Z,19.8
2019-02-18T11:19:42.709Z,19.8
2019-02-18T11:20:32.399Z,19.8
2019-02-18T11:21:23.318Z,19.8